| time (UTC) | temp F | wind direction | speed MPH | gust MPH | rain 1hr in | rain 24hr in | rain mn in | humidity % | barometer mb |
| 20260901051003 | 72 | 92 | 0.0 | 0.0 | 0.00 | 0.00 | 0.00 | 90 | 1020.8 |
| 20260901050503 | 72 | 92 | 0.0 | 0.0 | 0.00 | 0.00 | 0.00 | 90 | 1020.7 |
| 20260901050009 | 72 | 92 | 0.0 | 0.0 | 0.00 | 0.00 | 0.00 | 90 | 1020.7 |
| 20260901045506 | 72 | 92 | 0.0 | 0.0 | 0.00 | 0.00 | 0.00 | 90 | 1020.7 |
| 20260901045010 | 72 | 92 | 0.0 | 0.0 | 0.00 | 0.00 | 0.00 | 90 | 1020.7 |
| 20260901044516 | 72 | 92 | 0.0 | 0.0 | 0.00 | 0.00 | 0.00 | 90 | 1020.6 |
| 20260901044007 | 72 | 92 | 0.0 | 0.0 | 0.00 | 0.00 | 0.00 | 90 | 1020.6 |
| 20260901043508 | 72 | 92 | 0.0 | 0.0 | 0.00 | 0.00 | 0.00 | 90 | 1020.5 |
| 20260901043034 | 72 | 92 | 0.0 | 0.0 | 0.00 | 0.00 | 0.00 | 89 | 1020.5 |
| 20260901042518 | 73 | 92 | 0.0 | 0.0 | 0.00 | 0.00 | 0.00 | 89 | 1020.4 |
| 20260901042020 | 73 | 92 | 0.0 | 0.0 | 0.00 | 0.00 | 0.00 | 89 | 1020.5 |
| 20260901041529 | 73 | 92 | 0.0 | 0.0 | 0.00 | 0.00 | 0.00 | 89 | 1020.5 |
| 20260901041002 | 73 | 92 | 0.0 | 0.0 | 0.00 | 0.00 | 0.00 | 88 | 1020.5 |
| 20260901040504 | 73 | 92 | 0.0 | 0.0 | 0.00 | 0.00 | 0.00 | 88 | 1020.5 |
| 20260901040004 | 73 | 92 | 0.0 | 0.0 | 0.00 | 0.00 | 0.00 | 88 | 1020.5 |
| 20260901035502 | 73 | 92 | 0.0 | 0.0 | 0.00 | 0.00 | 0.00 | 88 | 1020.5 |
| 20260901035001 | 73 | 92 | 0.0 | 0.0 | 0.00 | 0.00 | 0.00 | 88 | 1020.5 |
| 20260901034514 | 73 | 92 | 0.0 | 0.0 | 0.00 | 0.00 | 0.00 | 88 | 1020.4 |
| 20260901034007 | 73 | 92 | 0.0 | 0.0 | 0.00 | 0.00 | 0.00 | 88 | 1020.5 |
| 20260901033506 | 73 | 92 | 0.0 | 0.0 | 0.00 | 0.00 | 0.00 | 87 | 1020.6 |
| 20260901033023 | 74 | 92 | 0.0 | 0.0 | 0.00 | 0.00 | 0.00 | 87 | 1020.6 |
| 20260901032507 | 74 | 92 | 0.0 | 0.0 | 0.00 | 0.00 | 0.00 | 87 | 1020.6 |
| 20260901032011 | 74 | 92 | 0.0 | 0.0 | 0.00 | 0.00 | 0.00 | 87 | 1020.6 |
| 20260901031526 | 74 | 92 | 0.0 | 0.0 | 0.00 | 0.00 | 0.00 | 87 | 1020.5 |
| 20260901031012 | 74 | 92 | 0.0 | 0.0 | 0.00 | 0.00 | 0.00 | 87 | 1020.5 |
| 20260901030514 | 74 | 92 | 0.0 | 0.0 | 0.00 | 0.00 | 0.00 | 86 | 1020.5 |
| 20260901030028 | 74 | 92 | 0.0 | 0.0 | 0.00 | 0.00 | 0.00 | 86 | 1020.4 |
| 20260901025514 | 74 | 92 | 0.0 | 0.0 | 0.00 | 0.00 | 0.00 | 85 | 1020.4 |
| 20260901025003 | 75 | 92 | 0.0 | 0.0 | 0.00 | 0.00 | 0.00 | 85 | 1020.3 |
| 20260901024507 | 75 | 92 | 0.0 | 0.0 | 0.00 | 0.00 | 0.00 | 85 | 1020.3 |
| 20260901024006 | 75 | 92 | 0.0 | 0.0 | 0.00 | 0.00 | 0.00 | 85 | 1020.3 |
| 20260901023505 | 75 | 92 | 0.0 | 0.0 | 0.00 | 0.00 | 0.00 | 85 | 1020.3 |
| 20260901023012 | 75 | 92 | 0.0 | 0.0 | 0.00 | 0.00 | 0.00 | 84 | 1020.3 |
| 20260901022506 | 75 | 92 | 0.0 | 0.0 | 0.00 | 0.00 | 0.00 | 84 | 1020.3 |
| 20260901022012 | 75 | 92 | 0.0 | 0.0 | 0.00 | 0.00 | 0.00 | 84 | 1020.3 |
| 20260901021528 | 75 | 92 | 0.0 | 0.0 | 0.00 | 0.00 | 0.00 | 83 | 1020.2 |
| 20260901021010 | 76 | 92 | 0.0 | 0.0 | 0.00 | 0.00 | 0.00 | 83 | 1020.1 |
| 20260901020513 | 76 | 92 | 0.0 | 0.0 | 0.00 | 0.00 | 0.00 | 83 | 1020.1 |
| 20260901020049 | 76 | 92 | 0.0 | 0.0 | 0.00 | 0.00 | 0.00 | 82 | 1020.1 |
| 20260901015513 | 76 | 92 | 0.0 | 0.0 | 0.00 | 0.00 | 0.00 | 82 | 1020.0 |
| 20260901015016 | 77 | 92 | 0.0 | 0.0 | 0.00 | 0.00 | 0.00 | 81 | 1019.9 |
| 20260901014530 | 77 | 92 | 0.0 | 0.0 | 0.00 | 0.00 | 0.00 | 81 | 1019.8 |
| 20260901014014 | 77 | 92 | 0.0 | 0.0 | 0.00 | 0.00 | 0.00 | 80 | 1019.8 |
| 20260901013504 | 78 | 92 | 0.0 | 0.0 | 0.00 | 0.00 | 0.00 | 80 | 1019.8 |
| 20260901013010 | 78 | 92 | 0.0 | 0.0 | 0.00 | 0.00 | 0.00 | 80 | 1019.8 |
| 20260901012503 | 78 | 92 | 0.0 | 0.0 | 0.00 | 0.00 | 0.00 | 79 | 1019.7 |
| 20260901012007 | 78 | 92 | 0.0 | 0.0 | 0.00 | 0.00 | 0.00 | 79 | 1019.6 |
| 20260901011515 | 79 | 92 | 0.0 | 0.0 | 0.00 | 0.00 | 0.00 | 78 | 1019.6 |
| 20260901011008 | 79 | 92 | 0.0 | 0.0 | 0.00 | 0.00 | 0.00 | 77 | 1019.5 |
| 20260901010512 | 79 | 92 | 0.0 | 2.0 | 0.00 | 0.00 | 0.00 | 77 | 1019.6 |
| 20260901010022 | 80 | 92 | 0.0 | 2.0 | 0.00 | 0.00 | 0.00 | 76 | 1019.5 |
| 20260901005512 | 80 | 92 | 0.0 | 2.0 | 0.00 | 0.00 | 0.00 | 76 | 1019.4 |
| 20260901005013 | 80 | 92 | 0.0 | 2.0 | 0.00 | 0.00 | 0.00 | 75 | 1019.5 |
| 20260901004531 | 81 | 92 | 0.0 | 2.0 | 0.00 | 0.00 | 0.00 | 74 | 1019.4 |
| 20260901004018 | 81 | 92 | 0.0 | 1.0 | 0.00 | 0.00 | 0.00 | 73 | 1019.4 |
| 20260901003518 | 82 | 92 | 0.0 | 2.0 | 0.00 | 0.00 | 0.00 | 72 | 1019.5 |
| 20260901003033 | 82 | 92 | 0.0 | 2.0 | 0.00 | 0.00 | 0.00 | 71 | 1019.5 |
| 20260901002516 | 83 | 92 | 0.0 | 2.0 | 0.00 | 0.00 | 0.00 | 70 | 1019.5 |
| 20260901002014 | 83 | 92 | 0.0 | 2.0 | 0.00 | 0.00 | 0.00 | 70 | 1019.5 |
| 20260901001517 | 83 | 92 | 0.0 | 4.0 | 0.00 | 0.00 | 0.00 | 69 | 1019.5 |
| 20260901001006 | 83 | 92 | 0.0 | 6.0 | 0.00 | 0.00 | 0.00 | 69 | 1019.4 |
| 20260901000507 | 84 | 144 | 2.0 | 6.0 | 0.00 | 0.00 | 0.00 | 68 | 1019.5 |
| 20260901000018 | 84 | 106 | 3.0 | 6.0 | 0.00 | 0.00 | 0.00 | 68 | 1019.4 |
| 20260831235511 | 84 | 132 | 4.0 | 9.0 | 0.00 | 0.00 | 0.00 | 67 | 1019.3 |
| 20260831235011 | 85 | 98 | 5.0 | 9.0 | 0.00 | 0.00 | 0.00 | 66 | 1019.4 |
| 20260831234527 | 85 | 105 | 5.0 | 7.0 | 0.00 | 0.00 | 0.00 | 66 | 1019.4 |
| 20260831234013 | 86 | 119 | 3.0 | 6.0 | 0.00 | 0.00 | 0.00 | 65 | 1019.4 |
| 20260831233513 | 87 | 105 | 3.0 | 6.0 | 0.00 | 0.00 | 0.00 | 64 | 1019.3 |
| 20260831233041 | 87 | 116 | 2.0 | 6.0 | 0.00 | 0.00 | 0.00 | 63 | 1019.3 |
| 20260831232515 | 88 | 105 | 1.0 | 7.0 | 0.00 | 0.00 | 0.00 | 63 | 1019.4 |
| 20260831232018 | 88 | 106 | 2.0 | 8.0 | 0.00 | 0.00 | 0.00 | 62 | 1019.5 |
| 20260831231534 | 88 | 117 | 4.0 | 10.0 | 0.00 | 0.00 | 0.00 | 61 | 1019.5 |
| 20260831231016 | 88 | 107 | 5.0 | 10.0 | 0.00 | 0.00 | 0.00 | 60 | 1019.5 |
| 20260831230515 | 89 | 98 | 4.0 | 10.0 | 0.00 | 0.00 | 0.00 | 59 | 1019.5 |
| 20260831230017 | 89 | 90 | 5.0 | 10.0 | 0.00 | 0.00 | 0.00 | 58 | 1019.6 |
| 20260831225510 | 90 | 104 | 3.0 | 9.0 | 0.00 | 0.00 | 0.00 | 58 | 1019.6 |
| 20260831225010 | 91 | 90 | 4.0 | 9.0 | 0.00 | 0.00 | 0.00 | 55 | 1019.7 |
| 20260831224523 | 92 | 331 | 0.0 | 5.0 | 0.00 | 0.00 | 0.00 | 54 | 1019.6 |
| 20260831224012 | 92 | 331 | 1.0 | 5.0 | 0.00 | 0.00 | 0.00 | 53 | 1019.6 |
| 20260831223512 | 93 | 254 | 0.0 | 3.0 | 0.00 | 0.00 | 0.00 | 55 | 1019.7 |
| 20260831223026 | 92 | 254 | 1.0 | 3.0 | 0.00 | 0.00 | 0.00 | 55 | 1019.7 |
| 20260831222513 | 92 | 249 | 0.0 | 3.0 | 0.00 | 0.00 | 0.00 | 56 | 1019.8 |
| 20260831222013 | 92 | 249 | 1.0 | 3.0 | 0.00 | 0.00 | 0.00 | 54 | 1019.8 |
| 20260831221532 | 91 | 249 | 1.0 | 3.0 | 0.00 | 0.00 | 0.00 | 57 | 1019.8 |
| 20260831221017 | 91 | 258 | 0.0 | 0.0 | 0.00 | 0.00 | 0.00 | 56 | 1019.8 |
| 20260831220514 | 89 | 258 | 0.0 | 0.0 | 0.00 | 0.00 | 0.00 | 61 | 1020.0 |
| 20260831220036 | 88 | 258 | 0.0 | 0.0 | 0.00 | 0.00 | 0.00 | 67 | 1019.9 |
| 20260831215517 | 88 | 258 | 0.0 | 0.0 | 0.00 | 0.00 | 0.00 | 65 | 1020.0 |
| 20260831215016 | 89 | 258 | 0.0 | 0.0 | 0.00 | 0.00 | 0.00 | 62 | 1020.0 |
| 20260831214530 | 90 | 258 | 0.0 | 0.0 | 0.00 | 0.00 | 0.00 | 62 | 1020.1 |
| 20260831214015 | 91 | 258 | 0.0 | 0.0 | 0.00 | 0.00 | 0.00 | 60 | 1020.1 |
| 20260831213511 | 91 | 258 | 0.0 | 0.0 | 0.00 | 0.00 | 0.00 | 57 | 1020.1 |
| 20260831213034 | 89 | 258 | 0.0 | 0.0 | 0.00 | 0.00 | 0.00 | 63 | 1020.1 |
| 20260831212517 | 88 | 258 | 0.0 | 0.0 | 0.00 | 0.00 | 0.00 | 62 | 1020.2 |
| 20260831212015 | 89 | 258 | 0.0 | 2.0 | 0.00 | 0.00 | 0.00 | 59 | 1020.2 |
| 20260831211529 | 89 | 258 | 0.0 | 2.0 | 0.00 | 0.00 | 0.00 | 54 | 1020.2 |
| 20260831211016 | 89 | 258 | 0.0 | 4.0 | 0.00 | 0.00 | 0.00 | 55 | 1020.2 |
| 20260831210515 | 90 | 258 | 1.0 | 4.0 | 0.00 | 0.00 | 0.00 | 57 | 1020.2 |
| 20260831210031 | 92 | 289 | 1.0 | 4.0 | 0.00 | 0.00 | 0.00 | 53 | 1020.2 |
| 20260831205517 | 92 | 275 | 2.0 | 6.0 | 0.00 | 0.00 | 0.00 | 51 | 1020.3 |
| 20260831205016 | 92 | 283 | 1.0 | 6.0 | 0.00 | 0.00 | 0.00 | 54 | 1020.2 |
| 20260831204534 | 91 | 265 | 2.0 | 4.0 | 0.00 | 0.00 | 0.00 | 57 | 1020.3 |
| 20260831204024 | 91 | 227 | 1.0 | 4.0 | 0.00 | 0.00 | 0.00 | 52 | 1020.3 |
| 20260831203521 | 92 | 336 | 1.0 | 4.0 | 0.00 | 0.00 | 0.00 | 52 | 1020.3 |
| 20260831203035 | 91 | 264 | 1.0 | 7.0 | 0.00 | 0.00 | 0.00 | 55 | 1020.3 |
| 20260831202520 | 92 | 263 | 2.0 | 7.0 | 0.00 | 0.00 | 0.00 | 52 | 1020.4 |
| 20260831202012 | 91 | 302 | 4.0 | 10.0 | 0.00 | 0.00 | 0.00 | 56 | 1020.4 |
| 20260831201504 | 92 | 284 | 3.0 | 10.0 | 0.00 | 0.00 | 0.00 | 52 | 1020.4 |
| 20260831201006 | 92 | 236 | 2.0 | 5.0 | 0.00 | 0.00 | 0.00 | 53 | 1020.4 |
| 20260831200503 | 93 | 252 | 2.0 | 5.0 | 0.00 | 0.00 | 0.00 | 53 | 1020.6 |
| 20260831200017 | 93 | 302 | 0.0 | 3.0 | 0.00 | 0.00 | 0.00 | 53 | 1020.7 |
| 20260831195503 | 92 | 72 | 0.0 | 4.0 | 0.00 | 0.00 | 0.00 | 52 | 1020.7 |
| 20260831195004 | 91 | 175 | 1.0 | 5.0 | 0.00 | 0.00 | 0.00 | 52 | 1020.7 |
| 20260831194527 | 91 | 175 | 3.0 | 5.0 | 0.00 | 0.00 | 0.00 | 55 | 1020.7 |
| 20260831194006 | 89 | 242 | 3.0 | 8.0 | 0.00 | 0.00 | 0.00 | 56 | 1020.8 |
| 20260831193511 | 90 | 225 | 2.0 | 8.0 | 0.00 | 0.00 | 0.00 | 54 | 1020.8 |
| 20260831193025 | 91 | 85 | 1.0 | 4.0 | 0.00 | 0.00 | 0.00 | 52 | 1020.8 |
| 20260831192513 | 91 | 225 | 1.0 | 5.0 | 0.00 | 0.00 | 0.00 | 55 | 1021.0 |
| 20260831192011 | 90 | 225 | 3.0 | 5.0 | 0.00 | 0.00 | 0.00 | 52 | 1021.0 |
| 20260831191503 | 92 | 279 | 2.0 | 5.0 | 0.00 | 0.00 | 0.00 | 59 | 1021.0 |
| 20260831191003 | 91 | 261 | 0.0 | 5.0 | 0.00 | 0.00 | 0.00 | 56 | 1021.0 |
| 20260831190503 | 91 | 93 | 2.0 | 4.0 | 0.00 | 0.00 | 0.00 | 58 | 1021.0 |
| 20260831190006 | 91 | 222 | 2.0 | 4.0 | 0.00 | 0.00 | 0.00 | 56 | 1021.1 |
| 20260831185504 | 91 | 283 | 1.0 | 5.0 | 0.00 | 0.00 | 0.00 | 57 | 1021.1 |
| 20260831185004 | 91 | 299 | 2.0 | 8.0 | 0.00 | 0.00 | 0.00 | 57 | 1021.3 |
| 20260831184519 | 91 | 24 | 4.0 | 8.0 | 0.00 | 0.00 | 0.00 | 57 | 1021.3 |
| 20260831184003 | 90 | 56 | 1.0 | 5.0 | 0.00 | 0.00 | 0.00 | 55 | 1021.4 |
| 20260831183503 | 90 | 355 | 4.0 | 5.0 | 0.00 | 0.00 | 0.00 | 56 | 1021.5 |
| 20260831183012 | 89 | 291 | 2.0 | 4.0 | 0.00 | 0.00 | 0.00 | 60 | 1021.6 |
| 20260831182510 | 89 | 309 | 1.0 | 4.0 | 0.00 | 0.00 | 0.00 | 60 | 1021.6 |
| 20260831182010 | 88 | 273 | 1.0 | 7.0 | 0.00 | 0.00 | 0.00 | 58 | 1021.6 |
| 20260831181522 | 90 | 284 | 4.0 | 7.0 | 0.00 | 0.00 | 0.00 | 55 | 1021.7 |
| 20260831181012 | 91 | 225 | 1.0 | 5.0 | 0.00 | 0.00 | 0.00 | 56 | 1021.7 |
| 20260831180514 | 90 | 78 | 1.0 | 5.0 | 0.00 | 0.00 | 0.00 | 56 | 1021.7 |
| 20260831180032 | 89 | 327 | 1.0 | 4.0 | 0.00 | 0.00 | 0.00 | 56 | 1021.8 |
| 20260831175503 | 88 | 240 | 1.0 | 4.0 | 0.00 | 0.00 | 0.00 | 58 | 1021.9 |
| 20260831175003 | 87 | 240 | 1.0 | 5.0 | 0.00 | 0.00 | 0.00 | 63 | 1022.1 |
| 20260831174506 | 87 | 240 | 3.0 | 9.0 | 0.00 | 0.00 | 0.00 | 60 | 1022.1 |
| 20260831174003 | 88 | 234 | 3.0 | 9.0 | 0.00 | 0.00 | 0.00 | 62 | 1022.2 |
| 20260831173503 | 89 | 277 | 2.0 | 7.0 | 0.00 | 0.00 | 0.00 | 67 | 1022.2 |
| 20260831173010 | 88 | 278 | 2.0 | 9.0 | 0.00 | 0.00 | 0.00 | 59 | 1022.2 |
| 20260831172507 | 88 | 276 | 1.0 | 9.0 | 0.00 | 0.00 | 0.00 | 62 | 1022.2 |
| 20260831172009 | 88 | 232 | 3.0 | 7.0 | 0.00 | 0.00 | 0.00 | 62 | 1022.3 |
| 20260831171516 | 89 | 231 | 2.0 | 7.0 | 0.00 | 0.00 | 0.00 | 59 | 1022.3 |
| 20260831171007 | 90 | 263 | 2.0 | 9.0 | 0.00 | 0.00 | 0.00 | 57 | 1022.3 |
| 20260831170511 | 89 | 156 | 1.0 | 9.0 | 0.00 | 0.00 | 0.00 | 63 | 1022.3 |
| 20260831170023 | 89 | 180 | 4.0 | 9.0 | 0.00 | 0.00 | 0.00 | 58 | 1022.3 |
| 20260831165510 | 89 | 177 | 5.0 | 9.0 | 0.00 | 0.00 | 0.00 | 61 | 1022.3 |
| 20260831165014 | 89 | 209 | 5.0 | 9.0 | 0.00 | 0.00 | 0.00 | 62 | 1022.4 |
| 20260831164533 | 88 | 205 | 1.0 | 9.0 | 0.00 | 0.00 | 0.00 | 61 | 1022.6 |
| 20260831164007 | 87 | 219 | 3.0 | 9.0 | 0.00 | 0.00 | 0.00 | 61 | 1022.6 |
| 20260831163503 | 87 | 206 | 3.0 | 9.0 | 0.00 | 0.00 | 0.00 | 64 | 1022.6 |
| 20260831163011 | 87 | 217 | 6.0 | 9.0 | 0.00 | 0.00 | 0.00 | 61 | 1022.6 |
| 20260831162504 | 87 | 219 | 2.0 | 7.0 | 0.00 | 0.00 | 0.00 | 62 | 1022.7 |
| 20260831162003 | 88 | 254 | 3.0 | 8.0 | 0.00 | 0.00 | 0.00 | 61 | 1022.6 |
| 20260831161515 | 88 | 223 | 3.0 | 8.0 | 0.00 | 0.00 | 0.00 | 61 | 1022.7 |
| 20260831161011 | 88 | 201 | 3.0 | 8.0 | 0.00 | 0.00 | 0.00 | 63 | 1022.7 |
| 20260831160506 | 88 | 246 | 4.0 | 8.0 | 0.00 | 0.00 | 0.00 | 63 | 1022.7 |
| 20260831160027 | 88 | 252 | 2.0 | 8.0 | 0.00 | 0.00 | 0.00 | 62 | 1022.7 |
| 20260831155513 | 87 | 252 | 4.0 | 8.0 | 0.00 | 0.00 | 0.00 | 63 | 1022.7 |
| 20260831155011 | 87 | 155 | 3.0 | 10.0 | 0.00 | 0.00 | 0.00 | 68 | 1022.7 |
| 20260831154548 | 86 | 213 | 4.0 | 10.0 | 0.00 | 0.00 | 0.00 | 65 | 1022.7 |
| 20260831154018 | 87 | 219 | 2.0 | 8.0 | 0.00 | 0.00 | 0.00 | 66 | 1022.7 |
| 20260831153521 | 86 | 181 | 3.0 | 11.0 | 0.00 | 0.00 | 0.00 | 68 | 1022.7 |
| 20260831153029 | 85 | 207 | 6.0 | 11.0 | 0.00 | 0.00 | 0.00 | 66 | 1022.7 |
| 20260831152514 | 85 | 188 | 5.0 | 9.0 | 0.00 | 0.00 | 0.00 | 68 | 1022.7 |
| 20260831152003 | 86 | 153 | 3.0 | 8.0 | 0.00 | 0.00 | 0.00 | 67 | 1022.7 |
| 20260831151511 | 85 | 209 | 3.0 | 11.0 | 0.00 | 0.00 | 0.00 | 68 | 1022.7 |
| 20260831151003 | 84 | 227 | 5.0 | 11.0 | 0.00 | 0.00 | 0.00 | 67 | 1022.7 |
| 20260831150507 | 84 | 188 | 6.0 | 11.0 | 0.00 | 0.00 | 0.00 | 67 | 1022.7 |
| 20260831150016 | 84 | 217 | 6.0 | 9.0 | 0.00 | 0.00 | 0.00 | 69 | 1022.7 |
| 20260831145509 | 84 | 242 | 2.0 | 8.0 | 0.00 | 0.00 | 0.00 | 69 | 1022.7 |
| 20260831145012 | 84 | 210 | 4.0 | 10.0 | 0.00 | 0.00 | 0.00 | 69 | 1022.7 |
| 20260831144529 | 84 | 227 | 4.0 | 10.0 | 0.00 | 0.00 | 0.00 | 69 | 1022.7 |
| 20260831144013 | 84 | 202 | 4.0 | 9.0 | 0.00 | 0.00 | 0.00 | 70 | 1022.6 |
| 20260831143512 | 83 | 207 | 4.0 | 7.0 | 0.00 | 0.00 | 0.00 | 71 | 1022.6 |
| 20260831143034 | 83 | 223 | 4.0 | 7.0 | 0.00 | 0.00 | 0.00 | 71 | 1022.6 |
| 20260831142513 | 83 | 203 | 3.0 | 7.0 | 0.00 | 0.00 | 0.00 | 72 | 1022.6 |
| 20260831142015 | 83 | 217 | 4.0 | 7.0 | 0.00 | 0.00 | 0.00 | 71 | 1022.6 |
| 20260831141530 | 83 | 211 | 2.0 | 7.0 | 0.00 | 0.00 | 0.00 | 73 | 1022.5 |
| 20260831141016 | 82 | 211 | 3.0 | 8.0 | 0.00 | 0.00 | 0.00 | 72 | 1022.5 |
| 20260831140516 | 82 | 221 | 4.0 | 8.0 | 0.00 | 0.00 | 0.00 | 73 | 1022.4 |
| 20260831140012 | 82 | 212 | 1.0 | 8.0 | 0.00 | 0.00 | 0.00 | 74 | 1022.5 |
| 20260831135507 | 82 | 210 | 2.0 | 5.0 | 0.00 | 0.00 | 0.00 | 77 | 1022.4 |
| 20260831135008 | 81 | 169 | 1.0 | 5.0 | 0.00 | 0.00 | 0.00 | 76 | 1022.4 |
| 20260831134518 | 81 | 168 | 3.0 | 5.0 | 0.00 | 0.00 | 0.00 | 77 | 1022.5 |
| 20260831134011 | 81 | 130 | 1.0 | 4.0 | 0.00 | 0.00 | 0.00 | 77 | 1022.4 |
| 20260831133512 | 80 | 239 | 1.0 | 4.0 | 0.00 | 0.00 | 0.00 | 77 | 1022.4 |
| 20260831133026 | 80 | 239 | 1.0 | 3.0 | 0.00 | 0.00 | 0.00 | 79 | 1022.3 |
| 20260831132513 | 80 | 147 | 0.0 | 3.0 | 0.00 | 0.00 | 0.00 | 80 | 1022.3 |
| 20260831132016 | 79 | 138 | 1.0 | 3.0 | 0.00 | 0.00 | 0.00 | 83 | 1022.3 |
| 20260831131527 | 78 | 138 | 1.0 | 4.0 | 0.00 | 0.00 | 0.00 | 86 | 1022.3 |
| 20260831131015 | 77 | 139 | 2.0 | 5.0 | 0.00 | 0.00 | 0.00 | 87 | 1022.2 |
| 20260831130517 | 76 | 150 | 3.0 | 5.0 | 0.00 | 0.00 | 0.00 | 91 | 1022.1 |
| 20260831130040 | 75 | 156 | 2.0 | 3.0 | 0.00 | 0.00 | 0.00 | 95 | 1022.1 |
| 20260831125519 | 74 | 268 | 0.0 | 2.0 | 0.00 | 0.00 | 0.00 | 97 | 1022.1 |
| 20260831125019 | 73 | 100 | 0.0 | 2.0 | 0.00 | 0.00 | 0.00 | 97 | 1022.0 |
| 20260831124515 | 73 | 174 | 0.0 | 1.0 | 0.00 | 0.00 | 0.00 | 97 | 1022.0 |
| 20260831124007 | 71 | 355 | 0.0 | 1.0 | 0.00 | 0.00 | 0.00 | 96 | 1021.9 |
| 20260831123509 | 70 | 9 | 0.0 | 0.0 | 0.00 | 0.00 | 0.00 | 95 | 1021.9 |
| 20260831123024 | 70 | 9 | 0.0 | 0.0 | 0.00 | 0.00 | 0.00 | 95 | 1021.9 |
| 20260831122516 | 69 | 9 | 0.0 | 1.0 | 0.00 | 0.00 | 0.00 | 95 | 1021.8 |
| 20260831122011 | 69 | 9 | 0.0 | 1.0 | 0.00 | 0.00 | 0.00 | 94 | 1021.7 |
| 20260831121535 | 69 | 9 | 0.0 | 1.0 | 0.00 | 0.00 | 0.00 | 94 | 1021.7 |
| 20260831121012 | 69 | 9 | 0.0 | 2.0 | 0.00 | 0.00 | 0.00 | 94 | 1021.6 |
| 20260831120518 | 69 | 355 | 1.0 | 2.0 | 0.00 | 0.00 | 0.00 | 94 | 1021.6 |
| 20260831120031 | 68 | 306 | 0.0 | 2.0 | 0.00 | 0.00 | 0.00 | 94 | 1021.6 |
| 20260831115521 | 68 | 306 | 0.0 | 2.0 | 0.00 | 0.00 | 0.00 | 93 | 1021.6 |
| 20260831115018 | 68 | 306 | 0.0 | 0.0 | 0.00 | 0.00 | 0.00 | 93 | 1021.5 |
| 20260831114534 | 68 | 306 | 0.0 | 0.0 | 0.00 | 0.00 | 0.00 | 93 | 1021.5 |
| 20260831114017 | 68 | 217 | 0.0 | 0.0 | 0.00 | 0.00 | 0.00 | 93 | 1021.4 |
| 20260831113517 | 67 | 217 | 0.0 | 0.0 | 0.00 | 0.00 | 0.00 | 93 | 1021.5 |
| 20260831113035 | 67 | 113 | 0.0 | 1.0 | 0.00 | 0.00 | 0.00 | 93 | 1021.5 |
| 20260831112508 | 67 | 113 | 0.0 | 1.0 | 0.00 | 0.00 | 0.00 | 92 | 1021.5 |
| 20260831112015 | 67 | 113 | 0.0 | 1.0 | 0.00 | 0.00 | 0.00 | 92 | 1021.4 |
| 20260831111505 | 67 | 113 | 0.0 | 1.0 | 0.00 | 0.00 | 0.00 | 92 | 1021.4 |
| 20260831111003 | 67 | 113 | 0.0 | 1.0 | 0.00 | 0.00 | 0.00 | 92 | 1021.3 |
| 20260831110503 | 67 | 113 | 0.0 | 1.0 | 0.00 | 0.00 | 0.00 | 91 | 1021.3 |
| 20260831110008 | 67 | 113 | 0.0 | 1.0 | 0.00 | 0.00 | 0.00 | 92 | 1021.2 |
| 20260831105505 | 67 | 113 | 0.0 | 1.0 | 0.00 | 0.00 | 0.00 | 92 | 1021.2 |
| 20260831105006 | 68 | 113 | 0.0 | 1.0 | 0.00 | 0.00 | 0.00 | 92 | 1021.1 |
| 20260831104511 | 68 | 113 | 0.0 | 1.0 | 0.00 | 0.00 | 0.00 | 92 | 1021.0 |
| 20260831104007 | 68 | 113 | 0.0 | 1.0 | 0.00 | 0.00 | 0.00 | 92 | 1021.0 |
| 20260831103503 | 68 | 113 | 0.0 | 1.0 | 0.00 | 0.00 | 0.00 | 92 | 1020.9 |
| 20260831103012 | 67 | 113 | 0.0 | 0.0 | 0.00 | 0.00 | 0.00 | 91 | 1021.0 |
| 20260831102505 | 68 | 113 | 0.0 | 1.0 | 0.00 | 0.00 | 0.00 | 91 | 1021.0 |
| 20260831102002 | 68 | 113 | 0.0 | 1.0 | 0.00 | 0.00 | 0.00 | 91 | 1020.9 |
| 20260831101504 | 68 | 113 | 0.0 | 0.0 | 0.00 | 0.00 | 0.00 | 91 | 1020.8 |
| 20260831101004 | 68 | 113 | 0.0 | 0.0 | 0.00 | 0.00 | 0.00 | 91 | 1020.7 |
| 20260831100502 | 68 | 113 | 0.0 | 0.0 | 0.00 | 0.00 | 0.00 | 91 | 1020.7 |
| 20260831100010 | 68 | 113 | 0.0 | 0.0 | 0.00 | 0.00 | 0.00 | 91 | 1020.7 |
| 20260831095503 | 68 | 113 | 0.0 | 0.0 | 0.00 | 0.00 | 0.00 | 91 | 1020.7 |
| 20260831095003 | 68 | 113 | 0.0 | 0.0 | 0.00 | 0.00 | 0.00 | 91 | 1020.7 |
| 20260831094517 | 68 | 113 | 0.0 | 0.0 | 0.00 | 0.00 | 0.00 | 91 | 1020.7 |
| 20260831094004 | 68 | 113 | 0.0 | 0.0 | 0.00 | 0.00 | 0.00 | 91 | 1020.6 |
| 20260831093503 | 68 | 113 | 0.0 | 0.0 | 0.00 | 0.00 | 0.00 | 91 | 1020.6 |
| 20260831093017 | 68 | 113 | 0.0 | 0.0 | 0.00 | 0.00 | 0.00 | 91 | 1020.6 |
| 20260831092509 | 68 | 113 | 0.0 | 0.0 | 0.00 | 0.00 | 0.00 | 91 | 1020.6 |
| 20260831092003 | 68 | 113 | 0.0 | 0.0 | 0.00 | 0.00 | 0.00 | 91 | 1020.6 |
| 20260831091517 | 68 | 113 | 0.0 | 0.0 | 0.00 | 0.00 | 0.00 | 90 | 1020.6 |
| 20260831091007 | 68 | 113 | 0.0 | 1.0 | 0.00 | 0.00 | 0.00 | 90 | 1020.6 |
| 20260831090508 | 68 | 113 | 0.0 | 1.0 | 0.00 | 0.00 | 0.00 | 90 | 1020.5 |
| 20260831090004 | 68 | 113 | 0.0 | 1.0 | 0.00 | 0.00 | 0.00 | 90 | 1020.5 |
| 20260831085502 | 68 | 113 | 0.0 | 0.0 | 0.00 | 0.00 | 0.00 | 90 | 1020.6 |
| 20260831085003 | 68 | 113 | 0.0 | 0.0 | 0.00 | 0.00 | 0.00 | 90 | 1020.5 |
| 20260831084504 | 69 | 113 | 0.0 | 0.0 | 0.00 | 0.00 | 0.00 | 90 | 1020.6 |
| 20260831084003 | 69 | 113 | 0.0 | 0.0 | 0.00 | 0.00 | 0.00 | 90 | 1020.4 |
| 20260831083505 | 69 | 113 | 0.0 | 0.0 | 0.00 | 0.00 | 0.00 | 89 | 1020.4 |
| 20260831083011 | 69 | 113 | 0.0 | 0.0 | 0.00 | 0.00 | 0.00 | 89 | 1020.4 |
| 20260831082506 | 69 | 113 | 0.0 | 0.0 | 0.00 | 0.00 | 0.00 | 89 | 1020.4 |
| 20260831082004 | 69 | 113 | 0.0 | 0.0 | 0.00 | 0.00 | 0.00 | 89 | 1020.4 |
| 20260831081522 | 69 | 113 | 0.0 | 0.0 | 0.00 | 0.00 | 0.00 | 89 | 1020.3 |
| 20260831081009 | 69 | 113 | 0.0 | 0.0 | 0.00 | 0.00 | 0.00 | 89 | 1020.3 |
| 20260831080507 | 69 | 113 | 0.0 | 0.0 | 0.00 | 0.00 | 0.00 | 89 | 1020.3 |
| 20260831080022 | 69 | 113 | 0.0 | 0.0 | 0.00 | 0.00 | 0.00 | 88 | 1020.3 |
| 20260831075509 | 69 | 113 | 0.0 | 0.0 | 0.00 | 0.00 | 0.00 | 88 | 1020.3 |
| 20260831075008 | 69 | 113 | 0.0 | 0.0 | 0.00 | 0.00 | 0.00 | 88 | 1020.3 |
| 20260831074515 | 70 | 113 | 0.0 | 0.0 | 0.00 | 0.00 | 0.00 | 88 | 1020.3 |
| 20260831074006 | 70 | 113 | 0.0 | 0.0 | 0.00 | 0.00 | 0.00 | 88 | 1020.3 |
| 20260831073503 | 70 | 113 | 0.0 | 2.0 | 0.00 | 0.00 | 0.00 | 88 | 1020.4 |
| 20260831073011 | 70 | 113 | 0.0 | 3.0 | 0.00 | 0.00 | 0.00 | 88 | 1020.4 |
| 20260831072504 | 70 | 113 | 1.0 | 3.0 | 0.00 | 0.00 | 0.00 | 88 | 1020.4 |
| 20260831072005 | 70 | 113 | 1.0 | 2.0 | 0.00 | 0.00 | 0.00 | 88 | 1020.4 |
| 20260831071512 | 70 | 113 | 0.0 | 0.0 | 0.00 | 0.00 | 0.00 | 88 | 1020.4 |
| 20260831071007 | 70 | 113 | 0.0 | 0.0 | 0.00 | 0.00 | 0.00 | 88 | 1020.6 |
| 20260831070507 | 70 | 113 | 0.0 | 0.0 | 0.00 | 0.00 | 0.00 | 88 | 1020.6 |
| 20260831070026 | 70 | 113 | 0.0 | 1.0 | 0.00 | 0.00 | 0.00 | 88 | 1020.6 |
| 20260831065512 | 70 | 113 | 0.0 | 2.0 | 0.00 | 0.00 | 0.00 | 88 | 1020.5 |
| 20260831065009 | 70 | 113 | 1.0 | 2.0 | 0.00 | 0.00 | 0.00 | 88 | 1020.5 |
| 20260831064536 | 70 | 113 | 0.0 | 2.0 | 0.00 | 0.00 | 0.00 | 88 | 1020.6 |
| 20260831064010 | 70 | 113 | 0.0 | 3.0 | 0.00 | 0.00 | 0.00 | 88 | 1020.5 |
| 20260831063512 | 70 | 113 | 1.0 | 3.0 | 0.00 | 0.00 | 0.00 | 89 | 1020.5 |
| 20260831063026 | 70 | 113 | 0.0 | 2.0 | 0.00 | 0.00 | 0.00 | 88 | 1020.5 |
| 20260831062503 | 70 | 113 | 0.0 | 2.0 | 0.00 | 0.00 | 0.00 | 89 | 1020.5 |
| 20260831062002 | 70 | 113 | 0.0 | 1.0 | 0.00 | 0.00 | 0.00 | 88 | 1020.6 |
| 20260831061510 | 70 | 113 | 0.0 | 1.0 | 0.00 | 0.00 | 0.00 | 89 | 1020.6 |
| 20260831061005 | 70 | 113 | 0.0 | 0.0 | 0.00 | 0.00 | 0.00 | 88 | 1020.6 |
| 20260831060507 | 70 | 113 | 0.0 | 0.0 | 0.00 | 0.00 | 0.00 | 88 | 1020.7 |
| 20260831060018 | 70 | 113 | 0.0 | 0.0 | 0.00 | 0.00 | 0.00 | 88 | 1020.7 |
| 20260831055510 | 71 | 113 | 0.0 | 0.0 | 0.00 | 0.00 | 0.00 | 88 | 1020.7 |
| 20260831055010 | 71 | 113 | 0.0 | 0.0 | 0.00 | 0.00 | 0.00 | 88 | 1020.7 |
| 20260831054524 | 71 | 113 | 0.0 | 0.0 | 0.00 | 0.00 | 0.00 | 88 | 1020.7 |
| 20260831054011 | 70 | 113 | 0.0 | 0.0 | 0.00 | 0.00 | 0.00 | 88 | 1020.7 |
| 20260831053510 | 71 | 113 | 0.0 | 0.0 | 0.00 | 0.00 | 0.00 | 88 | 1020.8 |
| 20260831053034 | 71 | 113 | 0.0 | 0.0 | 0.00 | 0.00 | 0.00 | 88 | 1020.9 |
| 20260831052512 | 71 | 113 | 0.0 | 0.0 | 0.00 | 0.00 | 0.00 | 88 | 1020.9 |